Terminal Aerodrome Forecast
Issued by NWS

Home | Current Version | Previous Version | Text Only | Print | Product List | Glossary On
Versions: 1 2 3 4 5 6 7 8 9 10 11 12 13 14 15 16
000
FTUS43 KILX 282300
TAFBMI
TAF
KBMI 282320Z 2900/2924 17010KT P6SM BKN150
     FM290600 19014KT P6SM BKN250 WS020/23040KT
     FM291200 20015KT P6SM BKN250
     FM291800 20016G22KT P6SM BKN250=

USA.gov is the U.S. government's official web portal to all federal, state and local government web resources and services.